Time;durP1;ratioP1;P1;durP2;ratioP2;P2;SDS_P1;SDS_P2;PMS_P1;PMS_P2;Temp;Humidity;BMP_temperature;BMP_pressure;BME280_temperature;BME280_humidity;BME280_pressure;Samples;Min_cycle;Max_cycle;Signal;HPM_P1;HPM_P2
2022/11/11 00:02:54;;;;;;;12;20.9;;;;;;;5.5;89.2;100210;;;;
2022/11/11 00:12:54;;;;;;;13;20.6;;;;;;;5.4;89.4;100220;;;;
2022/11/11 00:33:54;;;;;;;13;20.6;;;;;;;5.3;89.8;100230;;;;
2022/11/11 00:43:54;;;;;;;11.5;20;;;;;;;5.4;90.1;100240;;;;
2022/11/11 00:54:54;;;;;;;11.5;20;;;;;;;5.6;90.5;100240;;;;
2022/11/11 01:05:54;;;;;;;11.5;20;;;;;;;5.7;90.5;100240;;;;
2022/11/11 01:16:54;;;;;;;14.1;22.1;;;;;;;5.6;90.1;100230;;;;
2022/11/11 01:26:54;;;;;;;14.1;22.1;;;;;;;5.4;89.7;100230;;;;
2022/11/11 01:36:54;;;;;;;14.1;22.1;;;;;;;5.3;89.6;100220;;;;
2022/11/11 01:46:54;;;;;;;13.1;24.3;;;;;;;5.5;90;100220;;;;
2022/11/11 01:56:54;;;;;;;13.1;24.3;;;;;;;5.9;90.9;100230;;;;
2022/11/11 02:06:54;;;;;;;13.1;24.3;;;;;;;6.3;91.3;100240;;;;
2022/11/11 02:17:54;;;;;;;13.2;19.3;;;;;;;6.6;91.4;100230;;;;
2022/11/11 02:27:54;;;;;;;13.2;19.3;;;;;;;6.9;91.2;100250;;;;
2022/11/11 02:37:54;;;;;;;13.2;19.3;;;;;;;6.9;90.4;100250;;;;
2022/11/11 02:47:54;;;;;;;17.7;22.5;;;;;;;6.9;89.7;100260;;;;
2022/11/11 02:57:54;;;;;;;17.7;22.5;;;;;;;6.9;89.3;100270;;;;
2022/11/11 03:08:54;;;;;;;17.7;22.5;;;;;;;7;89.5;100270;;;;
2022/11/11 03:21:03;;;;;;;20;26.2;;;;;;;7.3;89.7;100260;;;;
2022/11/11 03:30:54;;;;;;;20;26.2;;;;;;;7.6;89.5;100260;;;;
2022/11/11 03:40:55;;;;;;;20;26.2;;;;;;;7.6;89.1;100260;;;;
2022/11/11 03:51:54;;;;;;;22.4;27.3;;;;;;;7.9;88.8;100260;;;;
2022/11/11 04:23:54;;;;;;;24;27.8;;;;;;;8.1;87.9;100240;;;;
2022/11/11 04:33:54;;;;;;;24;27.8;;;;;;;8.1;87.8;100240;;;;
2022/11/11 04:45:58;;;;;;;23.4;28;;;;;;;8;87.1;100250;;;;
2022/11/11 05:27:54;;;;;;;20.1;25.4;;;;;;;6.4;86.4;100290;;;;
2022/11/11 05:38:54;;;;;;;20.1;25.4;;;;;;;6.2;86.7;100310;;;;
2022/11/11 05:49:26;;;;;;;18.8;27.9;;;;;;;6.1;87.2;100310;;;;
2022/11/11 05:59:54;;;;;;;18.8;27.9;;;;;;;6.1;87.9;100330;;;;
2022/11/11 06:10:54;;;;;;;18.8;27.9;;;;;;;6.3;88.6;100330;;;;
2022/11/11 06:20:54;;;;;;;15.4;20.8;;;;;;;6.6;89.2;100340;;;;
2022/11/11 06:31:54;;;;;;;15.4;20.8;;;;;;;6.9;89.5;100330;;;;
2022/11/11 06:41:54;;;;;;;18.7;27.3;;;;;;;7.3;89.8;100340;;;;
2022/11/11 06:52:54;;;;;;;18.7;27.3;;;;;;;7.8;89.9;100320;;;;
2022/11/11 07:03:54;;;;;;;18.7;27.3;;;;;;;8.3;89.8;100340;;;;
2022/11/11 07:14:54;;;;;;;20.1;26;;;;;;;8.6;89.4;100340;;;;
2022/11/11 07:24:54;;;;;;;20.1;26;;;;;;;8.9;88.8;100340;;;;
2022/11/11 07:35:54;;;;;;;20.1;26;;;;;;;8.9;86.9;100320;;;;
2022/11/11 07:46:54;;;;;;;22;27.5;;;;;;;9.1;86.6;100310;;;;
2022/11/11 07:57:54;;;;;;;22;27.5;;;;;;;9.5;86.2;100320;;;;
2022/11/11 08:08:54;;;;;;;22;27.5;;;;;;;9.7;83.9;100290;;;;
2022/11/11 08:19:54;;;;;;;12.6;21.1;;;;;;;9.9;83;100280;;;;
2022/11/11 08:29:54;;;;;;;12.6;21.1;;;;;;;10.1;82;100290;;;;
2022/11/11 08:40:54;;;;;;;12.6;21.1;;;;;;;10.4;81.1;100300;;;;
2022/11/11 08:51:54;;;;;;;12.3;14.8;;;;;;;10.5;80.4;100310;;;;
2022/11/11 09:02:54;;;;;;;12.3;14.8;;;;;;;10.8;80.3;100310;;;;
2022/11/11 09:13:54;;;;;;;14.7;17.3;;;;;;;11.1;80.2;100320;;;;
2022/11/11 09:23:54;;;;;;;14.7;17.3;;;;;;;11.6;79.8;100290;;;;
2022/11/11 09:33:54;;;;;;;14.7;17.3;;;;;;;12;78.5;100310;;;;
2022/11/11 09:44:54;;;;;;;17.6;21.8;;;;;;;12.4;77.1;100300;;;;
2022/11/11 09:55:54;;;;;;;17.6;21.8;;;;;;;12.6;75.6;100310;;;;
2022/11/11 10:05:54;;;;;;;17.6;21.8;;;;;;;12.5;75.4;100300;;;;
2022/11/11 10:16:54;;;;;;;17.4;21.8;;;;;;;12.6;75.3;100310;;;;
2022/11/11 10:26:54;;;;;;;17.4;21.8;;;;;;;13.2;73.5;100290;;;;
2022/11/11 10:37:54;;;;;;;17.4;21.8;;;;;;;13.4;71.1;100300;;;;
2022/11/11 10:47:54;;;;;;;15.7;21.8;;;;;;;13.4;72.5;100290;;;;
2022/11/11 10:57:54;;;;;;;15.7;21.8;;;;;;;13.5;73.2;100290;;;;
2022/11/11 11:08:54;;;;;;;15.7;21.8;;;;;;;14;71.7;100270;;;;
2022/11/11 11:18:54;;;;;;;16.4;19.9;;;;;;;14.7;70.6;100250;;;;
2022/11/11 11:28:54;;;;;;;16.4;19.9;;;;;;;14.6;68.8;100250;;;;
2022/11/11 11:39:54;;;;;;;16.4;19.9;;;;;;;14.4;69.2;100240;;;;
2022/11/11 11:49:54;;;;;;;12.5;16.2;;;;;;;14.6;68.6;100230;;;;
2022/11/11 11:59:54;;;;;;;12.5;16.2;;;;;;;14.6;68.3;100240;;;;
2022/11/11 12:10:54;;;;;;;12.5;16.2;;;;;;;14.7;67.3;100240;;;;
2022/11/11 12:20:54;;;;;;;11.6;16.6;;;;;;;14.8;67.1;100240;;;;
2022/11/11 12:30:54;;;;;;;11.6;16.6;;;;;;;14.6;66.9;100220;;;;
2022/11/11 12:41:54;;;;;;;7.9;12.6;;;;;;;14.4;68;100210;;;;
2022/11/11 12:52:55;;;;;;;7.9;12.6;;;;;;;14.4;67.9;100220;;;;
2022/11/11 13:02:54;;;;;;;7.9;12.6;;;;;;;14.2;68;100210;;;;
2022/11/11 13:13:54;;;;;;;7.7;13.2;;;;;;;14;69.3;100200;;;;
2022/11/11 13:23:54;;;;;;;7.7;13.2;;;;;;;13.7;69.3;100200;;;;
2022/11/11 13:33:54;;;;;;;7.7;13.2;;;;;;;13.7;69.9;100200;;;;
2022/11/11 13:44:54;;;;;;;6.8;11.2;;;;;;;13.5;70.5;100190;;;;
2022/11/11 13:54:54;;;;;;;6.8;11.2;;;;;;;13.4;71.1;100190;;;;
2022/11/11 14:05:54;;;;;;;6.8;11.2;;;;;;;13.2;71.7;100180;;;;
2022/11/11 14:16:54;;;;;;;7.5;11.3;;;;;;;13.1;72.1;100200;;;;
2022/11/11 14:26:54;;;;;;;7.5;11.3;;;;;;;12.8;72.8;100210;;;;
2022/11/11 14:37:54;;;;;;;7.5;11.3;;;;;;;12.5;73.6;100220;;;;
2022/11/11 14:48:55;;;;;;;8.7;15.6;;;;;;;12.3;74.4;100220;;;;
2022/11/11 14:58:54;;;;;;;8.7;15.6;;;;;;;11.9;75.7;100220;;;;
2022/11/11 15:09:54;;;;;;;8.7;15.6;;;;;;;11.5;76.6;100240;;;;
2022/11/11 15:20:54;;;;;;;11.4;16.6;;;;;;;11.2;77.6;100230;;;;
2022/11/11 15:30:54;;;;;;;11.4;16.6;;;;;;;10.9;78.5;100230;;;;
2022/11/11 15:41:54;;;;;;;16.4;24;;;;;;;10.7;79;100230;;;;
2022/11/11 15:51:54;;;;;;;16.4;24;;;;;;;10.4;79;100240;;;;
2022/11/11 16:02:54;;;;;;;16.4;24;;;;;;;10.2;79.6;100250;;;;
2022/11/11 16:12:54;;;;;;;15;20.8;;;;;;;9.9;80.1;100250;;;;
2022/11/11 16:23:54;;;;;;;15;20.8;;;;;;;9.6;80.5;100260;;;;
2022/11/11 16:34:56;;;;;;;15;20.8;;;;;;;9.2;81.1;100260;;;;
2022/11/11 16:45:54;;;;;;;15.3;20;;;;;;;9;82.4;100250;;;;
2022/11/11 16:55:54;;;;;;;15.3;20;;;;;;;9;83;100260;;;;
2022/11/11 17:06:54;;;;;;;15.3;20;;;;;;;9;83.1;100250;;;;
2022/11/11 17:16:54;;;;;;;13.8;19.4;;;;;;;8.9;83.1;100260;;;;
2022/11/11 17:26:54;;;;;;;13.8;19.4;;;;;;;8.8;83.1;100260;;;;
2022/11/11 17:36:54;;;;;;;13.8;19.4;;;;;;;8.7;83.6;100260;;;;
2022/11/11 17:47:54;;;;;;;18.2;23.1;;;;;;;8.7;83.9;100260;;;;
2022/11/11 17:57:55;;;;;;;18.2;23.1;;;;;;;8.7;84.1;100260;;;;
2022/11/11 18:08:54;;;;;;;18.2;23.1;;;;;;;8.6;84.2;100260;;;;
2022/11/11 18:18:58;;;;;;;21.8;25.1;;;;;;;8.5;84.4;100260;;;;
2022/11/11 18:29:54;;;;;;;21.8;25.1;;;;;;;8.5;84.8;100270;;;;
2022/11/11 18:40:54;;;;;;;25.3;34.9;;;;;;;8.5;85;100270;;;;
2022/11/11 18:50:54;;;;;;;25.3;34.9;;;;;;;8.5;85.1;100280;;;;
2022/11/11 19:01:54;;;;;;;25.3;34.9;;;;;;;8.5;85.1;100290;;;;
2022/11/11 19:11:54;;;;;;;29.3;37.8;;;;;;;8.4;85.1;100290;;;;
2022/11/11 19:22:54;;;;;;;29.3;37.8;;;;;;;8.4;85;100300;;;;
2022/11/11 19:33:54;;;;;;;29.3;37.8;;;;;;;8.3;85.5;100310;;;;
2022/11/11 19:43:55;;;;;;;29.1;38.8;;;;;;;8.3;85.6;100310;;;;
2022/11/11 19:53:55;;;;;;;29.1;38.8;;;;;;;8.3;85.9;100320;;;;
2022/11/11 20:03:55;;;;;;;29.1;38.8;;;;;;;8.2;86.4;100320;;;;
2022/11/11 20:14:54;;;;;;;32.3;43.1;;;;;;;8.3;86.6;100310;;;;
2022/11/11 20:24:54;;;;;;;32.3;43.1;;;;;;;8.3;86.5;100310;;;;
2022/11/11 20:34:54;;;;;;;32.3;43.1;;;;;;;8.2;86.4;100310;;;;
2022/11/11 20:45:54;;;;;;;33.8;48.4;;;;;;;8.1;86.2;100310;;;;
2022/11/11 20:56:54;;;;;;;33.8;48.4;;;;;;;8;86.3;100310;;;;
2022/11/11 21:06:54;;;;;;;33.8;48.4;;;;;;;7.8;86.2;100310;;;;
2022/11/11 21:16:54;;;;;;;32.3;45.1;;;;;;;7.8;86.2;100310;;;;
2022/11/11 21:26:55;;;;;;;32.3;45.1;;;;;;;7.6;86.1;100300;;;;
2022/11/11 21:37:54;;;;;;;32.3;45.1;;;;;;;7.5;86.2;100310;;;;
2022/11/11 21:48:54;;;;;;;28.9;42.2;;;;;;;7.5;86.1;100320;;;;
2022/11/11 21:58:55;;;;;;;28.9;42.2;;;;;;;7.5;86;100330;;;;
2022/11/11 22:09:54;;;;;;;28.9;42.2;;;;;;;7.5;85.9;100330;;;;
2022/11/11 22:20:56;;;;;;;28.9;34.6;;;;;;;7.4;85.7;100330;;;;
2022/11/11 22:30:55;;;;;;;28.9;34.6;;;;;;;7.3;85.6;100330;;;;
2022/11/11 22:41:55;;;;;;;27.2;36.5;;;;;;;7.2;85.5;100330;;;;
2022/11/11 22:52:54;;;;;;;27.2;36.5;;;;;;;7.1;85.7;100320;;;;
2022/11/11 23:03:55;;;;;;;27.2;36.5;;;;;;;7.1;86.1;100320;;;;
2022/11/11 23:14:54;;;;;;;26.7;31.9;;;;;;;7.1;86.3;100320;;;;
2022/11/11 23:24:54;;;;;;;26.7;31.9;;;;;;;7.2;86.5;100320;;;;
2022/11/11 23:35:55;;;;;;;26.7;31.9;;;;;;;7.3;86.5;100310;;;;
2022/11/11 23:45:54;;;;;;;23.2;31.5;;;;;;;7.3;86.2;100310;;;;
2022/11/11 23:55:55;;;;;;;23.2;31.5;;;;;;;7.3;86;100310;;;;
